sensor_id;sensor_type;location;lat;lon;timestamp;pressure;altitude;pressure_sealevel;temperature;humidity
30021;BME280;16861;52.294;7.760;2023-05-03T00:01:37;101093.16;;;8.77;49.16
30021;BME280;16861;52.294;7.760;2023-05-03T00:04:04;101094.06;;;8.76;49.47
30021;BME280;16861;52.294;7.760;2023-05-03T00:06:31;101089.69;;;8.76;49.29
30021;BME280;16861;52.294;7.760;2023-05-03T00:08:58;101085.28;;;8.77;49.53
30021;BME280;16861;52.294;7.760;2023-05-03T00:11:24;101076.53;;;8.78;49.36
30021;BME280;16861;52.294;7.760;2023-05-03T00:13:52;101077.34;;;8.80;49.33
30021;BME280;16861;52.294;7.760;2023-05-03T00:16:18;101082.53;;;8.81;49.19
30021;BME280;16861;52.294;7.760;2023-05-03T00:18:46;101080.78;;;8.82;49.50
30021;BME280;16861;52.294;7.760;2023-05-03T00:21:14;101080.78;;;8.82;49.07
30021;BME280;16861;52.294;7.760;2023-05-03T00:23:41;101083.41;;;8.82;49.39
30021;BME280;16861;52.294;7.760;2023-05-03T00:26:07;101088.66;;;8.82;49.34
30021;BME280;16861;52.294;7.760;2023-05-03T00:28:34;101083.41;;;8.82;49.46
30021;BME280;16861;52.294;7.760;2023-05-03T00:31:08;101086.13;;;8.79;50.30
30021;BME280;16861;52.294;7.760;2023-05-03T00:33:36;101079.00;;;8.82;49.51
30021;BME280;16861;52.294;7.760;2023-05-03T00:36:09;101079.97;;;8.80;50.51
30021;BME280;16861;52.294;7.760;2023-05-03T00:38:37;101082.50;;;8.83;49.54
30021;BME280;16861;52.294;7.760;2023-05-03T00:41:04;101081.59;;;8.84;49.42
30021;BME280;16861;52.294;7.760;2023-05-03T00:43:31;101079.88;;;8.83;49.36
30021;BME280;16861;52.294;7.760;2023-05-03T00:45:58;101079.88;;;8.83;49.34
30021;BME280;16861;52.294;7.760;2023-05-03T00:48:41;101086.84;;;8.84;49.18
30021;BME280;16861;52.294;7.760;2023-05-03T00:51:07;101094.75;;;8.82;49.44
30021;BME280;16861;52.294;7.760;2023-05-03T00:53:35;101082.59;;;8.80;49.54
30021;BME280;16861;52.294;7.760;2023-05-03T00:56:02;101088.75;;;8.79;49.67
30021;BME280;16861;52.294;7.760;2023-05-03T00:58:31;101098.38;;;8.78;49.77
30021;BME280;16861;52.294;7.760;2023-05-03T01:00:58;101084.41;;;8.78;49.64
30021;BME280;16861;52.294;7.760;2023-05-03T01:03:26;101087.03;;;8.78;49.71
30021;BME280;16861;52.294;7.760;2023-05-03T01:06:27;101093.28;;;8.73;50.65
30021;BME280;16861;52.294;7.760;2023-05-03T01:09:02;101095.78;;;8.77;50.15
30021;BME280;16861;52.294;7.760;2023-05-03T01:12:07;101087.16;;;8.73;50.35
30021;BME280;16861;52.294;7.760;2023-05-03T01:17:12;101086.25;;;8.74;49.53
30021;BME280;16861;52.294;7.760;2023-05-03T01:19:44;101092.44;;;8.71;50.36
30021;BME280;16861;52.294;7.760;2023-05-03T01:25:14;101095.09;;;8.70;49.37
30021;BME280;16861;52.294;7.760;2023-05-03T01:27:42;101096.06;;;8.67;49.68
30021;BME280;16861;52.294;7.760;2023-05-03T01:30:10;101102.28;;;8.63;49.72
30021;BME280;16861;52.294;7.760;2023-05-03T01:38:03;101102.47;;;8.57;50.16
30021;BME280;16861;52.294;7.760;2023-05-03T01:40:31;101108.66;;;8.54;50.33
30021;BME280;16861;52.294;7.760;2023-05-03T01:43:00;101106.94;;;8.52;50.20
30021;BME280;16861;52.294;7.760;2023-05-03T01:45:28;101103.50;;;8.50;50.18
30021;BME280;16861;52.294;7.760;2023-05-03T01:47:55;101103.56;;;8.46;50.27
30021;BME280;16861;52.294;7.760;2023-05-03T01:50:22;101104.50;;;8.44;50.26
30021;BME280;16861;52.294;7.760;2023-05-03T01:52:49;101096.69;;;8.42;50.16
30021;BME280;16861;52.294;7.760;2023-05-03T01:55:18;101102.03;;;8.39;50.15
30021;BME280;16861;52.294;7.760;2023-05-03T01:57:44;101098.56;;;8.37;50.21
30021;BME280;16861;52.294;7.760;2023-05-03T02:00:11;101096.84;;;8.36;50.22
30021;BME280;16861;52.294;7.760;2023-05-03T02:02:38;101093.41;;;8.34;50.66
30021;BME280;16861;52.294;7.760;2023-05-03T02:05:05;101097.78;;;8.33;50.58
30021;BME280;16861;52.294;7.760;2023-05-03T02:07:31;101099.53;;;8.33;50.64
30021;BME280;16861;52.294;7.760;2023-05-03T02:09:58;101107.41;;;8.33;50.99
30021;BME280;16861;52.294;7.760;2023-05-03T02:12:25;101106.53;;;8.34;50.83
30021;BME280;16861;52.294;7.760;2023-05-03T02:14:51;101109.16;;;8.34;50.53
30021;BME280;16861;52.294;7.760;2023-05-03T02:17:18;101114.41;;;8.34;50.73
30021;BME280;16861;52.294;7.760;2023-05-03T02:19:46;101109.16;;;8.34;50.71
30021;BME280;16861;52.294;7.760;2023-05-03T02:22:12;101114.41;;;8.34;50.80
30021;BME280;16861;52.294;7.760;2023-05-03T02:24:39;101107.41;;;8.33;50.77
30021;BME280;16861;52.294;7.760;2023-05-03T02:27:05;101111.81;;;8.32;50.77
30021;BME280;16861;52.294;7.760;2023-05-03T02:29:32;101124.09;;;8.30;50.69
30021;BME280;16861;52.294;7.760;2023-05-03T02:31:59;101121.47;;;8.30;50.79
30021;BME280;16861;52.294;7.760;2023-05-03T02:34:26;101127.69;;;8.26;50.90
30021;BME280;16861;52.294;7.760;2023-05-03T02:36:53;101120.72;;;8.25;50.75
30021;BME280;16861;52.294;7.760;2023-05-03T02:39:20;101122.56;;;8.21;51.21
30021;BME280;16861;52.294;7.760;2023-05-03T02:41:46;101125.28;;;8.18;50.85
30021;BME280;16861;52.294;7.760;2023-05-03T02:44:13;101129.72;;;8.16;51.28
30021;BME280;16861;52.294;7.760;2023-05-03T02:46:40;101126.25;;;8.14;51.03
30021;BME280;16861;52.294;7.760;2023-05-03T02:49:07;101129.78;;;8.13;51.22
30021;BME280;16861;52.294;7.760;2023-05-03T02:51:35;101132.44;;;8.12;51.01
30021;BME280;16861;52.294;7.760;2023-05-03T02:54:01;101134.19;;;8.11;51.52
30021;BME280;16861;52.294;7.760;2023-05-03T02:56:28;101120.25;;;8.09;51.15
30021;BME280;16861;52.294;7.760;2023-05-03T02:58:55;101118.56;;;8.06;51.28
30021;BME280;16861;52.294;7.760;2023-05-03T03:01:21;101127.38;;;8.04;51.38
30021;BME280;16861;52.294;7.760;2023-05-03T03:03:48;101116.09;;;8.00;51.13
30021;BME280;16861;52.294;7.760;2023-05-03T03:06:15;101119.69;;;7.96;50.87
30021;BME280;16861;52.294;7.760;2023-05-03T03:08:42;101113.66;;;7.92;51.19
30021;BME280;16861;52.294;7.760;2023-05-03T03:11:09;101107.66;;;7.87;50.98
30021;BME280;16861;52.294;7.760;2023-05-03T03:13:35;101105.97;;;7.85;51.09
30021;BME280;16861;52.294;7.760;2023-05-03T03:16:08;101106.03;;;7.81;51.66
30021;BME280;16861;52.294;7.760;2023-05-03T03:18:35;101106.94;;;7.80;51.20
30021;BME280;16861;52.294;7.760;2023-05-03T03:21:02;101099.13;;;7.79;51.28
30021;BME280;16861;52.294;7.760;2023-05-03T03:23:29;101093.91;;;7.77;51.42
30021;BME280;16861;52.294;7.760;2023-05-03T03:25:56;101093.03;;;7.77;51.53
30021;BME280;16861;52.294;7.760;2023-05-03T03:28:23;101091.31;;;7.76;51.10
30021;BME280;16861;52.294;7.760;2023-05-03T03:30:49;101086.06;;;7.76;51.33
30021;BME280;16861;52.294;7.760;2023-05-03T03:33:16;101089.59;;;7.75;51.31
30021;BME280;16861;52.294;7.760;2023-05-03T03:35:42;101079.13;;;7.75;51.33
30021;BME280;16861;52.294;7.760;2023-05-03T03:38:09;101085.25;;;7.74;51.21
30021;BME280;16861;52.294;7.760;2023-05-03T03:40:36;101087.84;;;7.75;51.74
30021;BME280;16861;52.294;7.760;2023-05-03T03:43:02;101087.88;;;7.74;51.44
30021;BME280;16861;52.294;7.760;2023-05-03T03:45:29;101092.25;;;7.73;51.70
30021;BME280;16861;52.294;7.760;2023-05-03T03:47:56;101084.41;;;7.73;51.20
30021;BME280;16861;52.294;7.760;2023-05-03T03:50:24;101087.03;;;7.72;51.26
30021;BME280;16861;52.294;7.760;2023-05-03T03:52:51;101084.41;;;7.72;51.65
30021;BME280;16861;52.294;7.760;2023-05-03T03:55:18;101084.44;;;7.70;51.26
30021;BME280;16861;52.294;7.760;2023-05-03T03:57:44;101090.56;;;7.71;51.53
30021;BME280;16861;52.294;7.760;2023-05-03T04:00:11;101090.59;;;7.69;52.05
30021;BME280;16861;52.294;7.760;2023-05-03T04:02:38;101083.63;;;7.69;51.88
30021;BME280;16861;52.294;7.760;2023-05-03T04:05:05;101085.38;;;7.69;51.91
30021;BME280;16861;52.294;7.760;2023-05-03T04:07:33;101077.47;;;7.71;51.95
30021;BME280;16861;52.294;7.760;2023-05-03T04:09:59;101083.59;;;7.71;52.25
30021;BME280;16861;52.294;7.760;2023-05-03T04:12:27;101079.19;;;7.72;51.92
30021;BME280;16861;52.294;7.760;2023-05-03T04:14:53;101080.09;;;7.71;52.10
30021;BME280;16861;52.294;7.760;2023-05-03T04:17:20;101081.00;;;7.69;52.03
30021;BME280;16861;52.294;7.760;2023-05-03T04:19:47;101079.22;;;7.70;52.28
30021;BME280;16861;52.294;7.760;2023-05-03T04:22:14;101076.59;;;7.70;52.00
30021;BME280;16861;52.294;7.760;2023-05-03T04:24:40;101088.81;;;7.71;52.26
30021;BME280;16861;52.294;7.760;2023-05-03T04:27:07;101081.78;;;7.73;52.14
30021;BME280;16861;52.294;7.760;2023-05-03T04:29:33;101080.03;;;7.74;52.29
30021;BME280;16861;52.294;7.760;2023-05-03T04:32:00;101081.75;;;7.75;52.50
30021;BME280;16861;52.294;7.760;2023-05-03T04:34:27;101075.59;;;7.76;52.14
30021;BME280;16861;52.294;7.760;2023-05-03T04:36:55;101079.94;;;7.77;52.36
30021;BME280;16861;52.294;7.760;2023-05-03T04:39:22;101086.03;;;7.77;52.23
30021;BME280;16861;52.294;7.760;2023-05-03T04:41:49;101088.66;;;7.77;52.37
30021;BME280;16861;52.294;7.760;2023-05-03T04:44:15;101099.13;;;7.79;52.31
30021;BME280;16861;52.294;7.760;2023-05-03T04:46:42;101096.47;;;7.80;52.32
30021;BME280;16861;52.294;7.760;2023-05-03T04:49:09;101100.78;;;7.83;52.20
30021;BME280;16861;52.294;7.760;2023-05-03T04:51:36;101097.22;;;7.86;52.10
30021;BME280;16861;52.294;7.760;2023-05-03T04:54:03;101097.16;;;7.89;52.46
30021;BME280;16861;52.294;7.760;2023-05-03T04:56:29;101099.66;;;7.92;52.45
30021;BME280;16861;52.294;7.760;2023-05-03T04:58:56;101106.63;;;7.94;52.49
30021;BME280;16861;52.294;7.760;2023-05-03T05:01:23;101114.41;;;7.98;52.51
30021;BME280;16861;52.294;7.760;2023-05-03T05:03:53;101116.97;;;8.01;52.03
30021;BME280;16861;52.294;7.760;2023-05-03T05:06:20;101113.34;;;8.05;52.41
30021;BME280;16861;52.294;7.760;2023-05-03T05:08:46;101122.88;;;8.09;52.14
30021;BME280;16861;52.294;7.760;2023-05-03T05:11:13;101123.66;;;8.13;52.33
30021;BME280;16861;52.294;7.760;2023-05-03T05:13:40;101129.72;;;8.16;52.16
30021;BME280;16861;52.294;7.760;2023-05-03T05:16:07;101130.47;;;8.20;52.25
30021;BME280;16861;52.294;7.760;2023-05-03T05:18:33;101133.88;;;8.24;52.42
30021;BME280;16861;52.294;7.760;2023-05-03T05:21:00;101134.72;;;8.26;52.49
30021;BME280;16861;52.294;7.760;2023-05-03T05:23:26;101142.50;;;8.29;52.71
30021;BME280;16861;52.294;7.760;2023-05-03T05:25:53;101143.28;;;8.32;52.44
30021;BME280;16861;52.294;7.760;2023-05-03T05:28:19;101142.34;;;8.35;52.52
30021;BME280;16861;52.294;7.760;2023-05-03T05:30:46;101157.09;;;8.41;52.52
30021;BME280;16861;52.294;7.760;2023-05-03T05:33:12;101150.03;;;8.43;52.59
30021;BME280;16861;52.294;7.760;2023-05-03T05:35:44;101145.53;;;8.46;52.80
30021;BME280;16861;52.294;7.760;2023-05-03T05:38:10;101150.72;;;8.50;52.69
30021;BME280;16861;52.294;7.760;2023-05-03T05:40:37;101159.44;;;8.52;52.44
30021;BME280;16861;52.294;7.760;2023-05-03T05:43:04;101162.91;;;8.54;52.75
30021;BME280;16861;52.294;7.760;2023-05-03T05:45:30;101168.06;;;8.57;52.65
30021;BME280;16861;52.294;7.760;2023-05-03T05:47:57;101166.25;;;8.59;52.75
30021;BME280;16861;52.294;7.760;2023-05-03T05:52:58;101158.22;;;8.67;52.75
30021;BME280;16861;52.294;7.760;2023-05-03T05:55:24;101162.47;;;8.71;52.70
30021;BME280;16861;52.294;7.760;2023-05-03T05:57:51;101174.56;;;8.77;52.77
30021;BME280;16861;52.294;7.760;2023-05-03T06:00:17;101161.34;;;8.80;52.56
30021;BME280;16861;52.294;7.760;2023-05-03T06:02:44;101167.34;;;8.85;52.23
30021;BME280;16861;52.294;7.760;2023-05-03T06:05:11;101162.88;;;8.89;52.60
30021;BME280;16861;52.294;7.760;2023-05-03T06:07:37;101169.69;;;8.94;52.23
30021;BME280;16861;52.294;7.760;2023-05-03T06:10:04;101171.41;;;8.97;52.39
30021;BME280;16861;52.294;7.760;2023-05-03T06:12:32;101175.66;;;9.01;52.40
30021;BME280;16861;52.294;7.760;2023-05-03T06:14:58;101172.91;;;9.06;52.44
30021;BME280;16861;52.294;7.760;2023-05-03T06:17:28;101173.63;;;9.11;52.49
30021;BME280;16861;52.294;7.760;2023-05-03T06:19:56;101183.13;;;9.17;52.63
30021;BME280;16861;52.294;7.760;2023-05-03T06:22:23;101183.84;;;9.22;52.46
30021;BME280;16861;52.294;7.760;2023-05-03T06:24:50;101182.81;;;9.28;51.97
30021;BME280;16861;52.294;7.760;2023-05-03T06:27:16;101180.91;;;9.33;51.89
30021;BME280;16861;52.294;7.760;2023-05-03T06:29:43;101193.00;;;9.38;51.70
30021;BME280;16861;52.294;7.760;2023-05-03T06:32:10;101183.22;;;9.44;51.91
30021;BME280;16861;52.294;7.760;2023-05-03T06:34:37;101176.94;;;9.49;51.86
30021;BME280;16861;52.294;7.760;2023-05-03T06:37:03;101184.69;;;9.54;51.69
30021;BME280;16861;52.294;7.760;2023-05-03T06:39:30;101182.81;;;9.58;51.20
30021;BME280;16861;52.294;7.760;2023-05-03T06:41:56;101188.81;;;9.63;51.60
30021;BME280;16861;52.294;7.760;2023-05-03T06:44:23;101191.31;;;9.68;51.57
30021;BME280;16861;52.294;7.760;2023-05-03T06:46:50;101188.47;;;9.74;51.44
30021;BME280;16861;52.294;7.760;2023-05-03T06:49:16;101190.97;;;9.78;51.23
30021;BME280;16861;52.294;7.760;2023-05-03T06:51:43;101191.69;;;9.84;51.15
30021;BME280;16861;52.294;7.760;2023-05-03T06:54:09;101190.69;;;9.88;50.72
30021;BME280;16861;52.294;7.760;2023-05-03T06:56:36;101192.31;;;9.92;51.08
30021;BME280;16861;52.294;7.760;2023-05-03T06:59:03;101188.66;;;9.98;50.84
30021;BME280;16861;52.294;7.760;2023-05-03T07:01:30;101188.47;;;10.02;50.77
30021;BME280;16861;52.294;7.760;2023-05-03T07:03:57;101192.75;;;10.07;50.71
30021;BME280;16861;52.294;7.760;2023-05-03T07:06:24;101189.94;;;10.13;50.53
30021;BME280;16861;52.294;7.760;2023-05-03T07:08:52;101187.13;;;10.17;50.50
30021;BME280;16861;52.294;7.760;2023-05-03T07:11:20;101181.72;;;10.22;50.27
30021;BME280;16861;52.294;7.760;2023-05-03T07:13:50;101189.47;;;10.27;50.19
30021;BME280;16861;52.294;7.760;2023-05-03T07:16:20;101186.75;;;10.30;50.01
30021;BME280;16861;52.294;7.760;2023-05-03T07:18:47;101180.41;;;10.36;50.06
30021;BME280;16861;52.294;7.760;2023-05-03T07:21:14;101187.31;;;10.40;49.98
30021;BME280;16861;52.294;7.760;2023-05-03T07:23:42;101188.03;;;10.45;49.91
30021;BME280;16861;52.294;7.760;2023-05-03T07:26:09;101184.34;;;10.51;49.61
30021;BME280;16861;52.294;7.760;2023-05-03T07:28:36;101177.16;;;10.56;49.74
30021;BME280;16861;52.294;7.760;2023-05-03T07:31:03;101175.16;;;10.63;49.81
30021;BME280;16861;52.294;7.760;2023-05-03T07:33:33;101173.22;;;10.68;49.89
30021;BME280;16861;52.294;7.760;2023-05-03T07:35:59;101166.84;;;10.75;49.86
30021;BME280;16861;52.294;7.760;2023-05-03T07:38:26;101170.06;;;10.84;49.75
30021;BME280;16861;52.294;7.760;2023-05-03T07:40:52;101170.66;;;10.92;49.47
30021;BME280;16861;52.294;7.760;2023-05-03T07:43:19;101168.59;;;11.00;49.17
30021;BME280;16861;52.294;7.760;2023-05-03T07:45:48;101163.97;;;11.07;49.32
30021;BME280;16861;52.294;7.760;2023-05-03T07:48:15;101166.31;;;11.15;49.12
30021;BME280;16861;52.294;7.760;2023-05-03T07:50:42;101167.94;;;11.19;48.79
30021;BME280;16861;52.294;7.760;2023-05-03T07:53:10;101174.84;;;11.21;48.60
30021;BME280;16861;52.294;7.760;2023-05-03T07:55:37;101164.16;;;11.26;48.76
30021;BME280;16861;52.294;7.760;2023-05-03T07:58:04;101157.84;;;11.30;49.07
30021;BME280;16861;52.294;7.760;2023-05-03T08:00:30;101158.47;;;11.37;48.99
30021;BME280;16861;52.294;7.760;2023-05-03T08:02:57;101158.19;;;11.45;48.77
30021;BME280;16861;52.294;7.760;2023-05-03T08:05:24;101154.41;;;11.52;48.67
30021;BME280;16861;52.294;7.760;2023-05-03T08:07:51;101151.50;;;11.58;48.41
30021;BME280;16861;52.294;7.760;2023-05-03T08:10:18;101151.34;;;11.63;48.57
30021;BME280;16861;52.294;7.760;2023-05-03T08:12:44;101153.78;;;11.68;48.34
30021;BME280;16861;52.294;7.760;2023-05-03T08:15:11;101145.66;;;11.74;48.40
30021;BME280;16861;52.294;7.760;2023-05-03T08:17:42;101161.22;;;11.80;48.47
30021;BME280;16861;52.294;7.760;2023-05-03T08:20:10;101146.88;;;11.88;48.44
30021;BME280;16861;52.294;7.760;2023-05-03T08:22:37;101152.81;;;11.93;48.38
30021;BME280;16861;52.294;7.760;2023-05-03T08:25:04;101154.28;;;12.00;48.67
30021;BME280;16861;52.294;7.760;2023-05-03T08:27:31;101147.88;;;12.07;48.39
30021;BME280;16861;52.294;7.760;2023-05-03T08:29:58;101139.56;;;12.17;48.19
30021;BME280;16861;52.294;7.760;2023-05-03T08:32:27;101147.19;;;12.24;48.25
30021;BME280;16861;52.294;7.760;2023-05-03T08:34:54;101144.16;;;12.34;48.43
30021;BME280;16861;52.294;7.760;2023-05-03T08:37:22;101152.47;;;12.45;48.30
30021;BME280;16861;52.294;7.760;2023-05-03T08:39:48;101154.66;;;12.56;48.09
30021;BME280;16861;52.294;7.760;2023-05-03T08:42:15;101160.41;;;12.66;47.42
30021;BME280;16861;52.294;7.760;2023-05-03T08:44:46;101158.34;;;12.73;46.84
30021;BME280;16861;52.294;7.760;2023-05-03T08:47:16;101160.59;;;12.82;47.19
30021;BME280;16861;52.294;7.760;2023-05-03T08:49:43;101165.56;;;12.90;47.31
30021;BME280;16861;52.294;7.760;2023-05-03T08:52:11;101158.97;;;12.99;47.62
30021;BME280;16861;52.294;7.760;2023-05-03T08:54:39;101163.84;;;13.08;47.71
30021;BME280;16861;52.294;7.760;2023-05-03T08:57:13;101163.53;;;13.16;46.77
30021;BME280;16861;52.294;7.760;2023-05-03T08:59:51;101155.31;;;13.22;46.03
30021;BME280;16861;52.294;7.760;2023-05-03T09:02:27;101147.88;;;13.31;46.06
30021;BME280;16861;52.294;7.760;2023-05-03T09:04:54;101147.00;;;13.30;45.97
30021;BME280;16861;52.294;7.760;2023-05-03T09:07:21;101153.31;;;13.27;46.30
30021;BME280;16861;52.294;7.760;2023-05-03T09:09:48;101148.09;;;13.26;46.66
30021;BME280;16861;52.294;7.760;2023-05-03T09:12:33;101142.97;;;13.23;46.55
30021;BME280;16861;52.294;7.760;2023-05-03T09:15:01;101135.44;;;13.33;47.38
30021;BME280;16861;52.294;7.760;2023-05-03T09:17:29;101144.81;;;13.40;46.68
30021;BME280;16861;52.294;7.760;2023-05-03T09:19:57;101139.19;;;13.48;46.65
30021;BME280;16861;52.294;7.760;2023-05-03T09:22:31;101137.97;;;13.55;45.72
30021;BME280;16861;52.294;7.760;2023-05-03T09:24:59;101133.19;;;13.63;46.19
30021;BME280;16861;52.294;7.760;2023-05-03T09:27:26;101126.56;;;13.72;46.48
30021;BME280;16861;52.294;7.760;2023-05-03T09:29:53;101133.16;;;13.83;47.08
30021;BME280;16861;52.294;7.760;2023-05-03T09:32:20;101132.75;;;13.90;46.58
30021;BME280;16861;52.294;7.760;2023-05-03T09:34:48;101127.88;;;14.00;46.39
30021;BME280;16861;52.294;7.760;2023-05-03T09:37:14;101123.84;;;14.11;46.21
30021;BME280;16861;52.294;7.760;2023-05-03T09:39:43;101128.66;;;14.20;46.21
30021;BME280;16861;52.294;7.760;2023-05-03T09:42:15;101129.13;;;14.28;46.29
30021;BME280;16861;52.294;7.760;2023-05-03T09:47:10;101128.84;;;14.52;46.13
30021;BME280;16861;52.294;7.760;2023-05-03T09:49:37;101123.06;;;14.62;46.31
30021;BME280;16861;52.294;7.760;2023-05-03T09:52:05;101119.84;;;14.72;45.64
30021;BME280;16861;52.294;7.760;2023-05-03T09:54:33;101120.16;;;14.84;45.55
30021;BME280;16861;52.294;7.760;2023-05-03T09:57:04;101123.25;;;14.92;45.42
30021;BME280;16861;52.294;7.760;2023-05-03T09:59:32;101131.66;;;15.01;45.15
30021;BME280;16861;52.294;7.760;2023-05-03T10:02:01;101125.94;;;15.08;45.50
30021;BME280;16861;52.294;7.760;2023-05-03T10:04:51;101129.13;;;15.15;44.25
30021;BME280;16861;52.294;7.760;2023-05-03T10:07:24;101118.00;;;15.24;44.69
30021;BME280;16861;52.294;7.760;2023-05-03T10:09:53;101117.56;;;15.32;45.13
30021;BME280;16861;52.294;7.760;2023-05-03T10:12:22;101102.16;;;15.39;45.22
30021;BME280;16861;52.294;7.760;2023-05-03T10:14:51;101100.91;;;15.46;44.25
30021;BME280;16861;52.294;7.760;2023-05-03T10:17:30;101106.72;;;15.53;44.62
30021;BME280;16861;52.294;7.760;2023-05-03T10:25:35;101093.22;;;15.88;44.20
30021;BME280;16861;52.294;7.760;2023-05-03T10:28:03;101097.06;;;15.99;44.51
30021;BME280;16861;52.294;7.760;2023-05-03T10:30:31;101106.31;;;16.08;44.15
30021;BME280;16861;52.294;7.760;2023-05-03T10:35:40;101097.94;;;16.30;43.93
30021;BME280;16861;52.294;7.760;2023-05-03T10:38:21;101087.66;;;16.38;43.18
30021;BME280;16861;52.294;7.760;2023-05-03T10:40:48;101079.53;;;16.56;43.59
30021;BME280;16861;52.294;7.760;2023-05-03T10:43:44;101087.81;;;16.66;43.05
30021;BME280;16861;52.294;7.760;2023-05-03T10:46:29;101086.78;;;16.83;43.68
30021;BME280;16861;52.294;7.760;2023-05-03T10:49:14;101080.13;;;17.05;43.18
30021;BME280;16861;52.294;7.760;2023-05-03T10:51:40;101084.47;;;17.35;44.65
30021;BME280;16861;52.294;7.760;2023-05-03T10:54:08;101075.97;;;17.70;44.10
30021;BME280;16861;52.294;7.760;2023-05-03T10:56:46;101084.50;;;18.16;43.30
30021;BME280;16861;52.294;7.760;2023-05-03T10:59:13;101078.78;;;18.74;44.73
30021;BME280;16861;52.294;7.760;2023-05-03T11:01:42;101072.44;;;19.39;44.01
30021;BME280;16861;52.294;7.760;2023-05-03T11:04:14;101079.91;;;20.07;42.41
30021;BME280;16861;52.294;7.760;2023-05-03T11:06:46;101078.31;;;20.75;42.45
30021;BME280;16861;52.294;7.760;2023-05-03T11:09:15;101068.16;;;21.35;41.34
30021;BME280;16861;52.294;7.760;2023-05-03T11:11:41;101056.53;;;21.91;40.02
30021;BME280;16861;52.294;7.760;2023-05-03T11:14:11;101070.38;;;22.38;39.43
30021;BME280;16861;52.294;7.760;2023-05-03T11:16:39;101062.16;;;22.83;39.34
30021;BME280;16861;52.294;7.760;2023-05-03T11:19:13;101059.25;;;23.25;38.20
30021;BME280;16861;52.294;7.760;2023-05-03T11:21:41;101069.38;;;23.63;37.57
30021;BME280;16861;52.294;7.760;2023-05-03T11:24:09;101059.19;;;23.96;36.15
30021;BME280;16861;52.294;7.760;2023-05-03T11:26:37;101057.84;;;24.30;35.94
30021;BME280;16861;52.294;7.760;2023-05-03T11:29:03;101056.88;;;24.59;35.09
30021;BME280;16861;52.294;7.760;2023-05-03T11:31:31;101057.78;;;24.88;34.44
30021;BME280;16861;52.294;7.760;2023-05-03T11:33:58;101063.59;;;25.11;34.04
30021;BME280;16861;52.294;7.760;2023-05-03T11:36:25;101053.53;;;25.31;33.76
30021;BME280;16861;52.294;7.760;2023-05-03T11:38:53;101059.72;;;25.42;32.85
30021;BME280;16861;52.294;7.760;2023-05-03T11:41:20;101058.13;;;25.49;32.84
30021;BME280;16861;52.294;7.760;2023-05-03T11:43:48;101060.19;;;25.55;32.85
30021;BME280;16861;52.294;7.760;2023-05-03T11:46:30;101056.44;;;25.66;32.34
30021;BME280;16861;52.294;7.760;2023-05-03T11:48:58;101053.53;;;25.86;32.51
30021;BME280;16861;52.294;7.760;2023-05-03T11:54:04;101046.91;;;26.25;31.97
30021;BME280;16861;52.294;7.760;2023-05-03T11:56:49;101057.19;;;26.48;32.27
30021;BME280;16861;52.294;7.760;2023-05-03T11:59:18;101047.66;;;26.70;31.78
30021;BME280;16861;52.294;7.760;2023-05-03T12:01:45;101053.34;;;26.93;31.25
30021;BME280;16861;52.294;7.760;2023-05-03T12:04:15;101042.94;;;27.15;31.01
30021;BME280;16861;52.294;7.760;2023-05-03T12:06:42;101044.66;;;27.33;30.08
30021;BME280;16861;52.294;7.760;2023-05-03T12:09:17;101033.16;;;27.48;30.20
30021;BME280;16861;52.294;7.760;2023-05-03T12:11:48;101029.13;;;27.60;29.86
30021;BME280;16861;52.294;7.760;2023-05-03T12:14:17;101033.88;;;27.75;29.74
30021;BME280;16861;52.294;7.760;2023-05-03T12:16:49;101041.31;;;27.89;29.04
30021;BME280;16861;52.294;7.760;2023-05-03T12:19:29;101030.81;;;28.03;29.22
30021;BME280;16861;52.294;7.760;2023-05-03T12:21:59;101023.81;;;28.25;30.18
30021;BME280;16861;52.294;7.760;2023-05-03T12:24:29;101029.03;;;28.43;29.36
30021;BME280;16861;52.294;7.760;2023-05-03T12:26:59;101027.28;;;28.59;29.60
30021;BME280;16861;52.294;7.760;2023-05-03T12:29:28;101014.66;;;28.74;28.87
30021;BME280;16861;52.294;7.760;2023-05-03T12:32:00;101012.94;;;28.90;28.62
30021;BME280;16861;52.294;7.760;2023-05-03T12:34:29;101016.56;;;29.06;28.46
30021;BME280;16861;52.294;7.760;2023-05-03T12:37:01;101011.19;;;29.21;28.29
30021;BME280;16861;52.294;7.760;2023-05-03T12:39:30;101013.63;;;29.39;27.92
30021;BME280;16861;52.294;7.760;2023-05-03T12:41:58;101017.06;;;29.56;27.64
30021;BME280;16861;52.294;7.760;2023-05-03T12:44:28;101005.59;;;29.69;27.26
30021;BME280;16861;52.294;7.760;2023-05-03T12:46:54;101003.94;;;29.83;27.04
30021;BME280;16861;52.294;7.760;2023-05-03T12:49:24;100996.81;;;29.97;26.92
30021;BME280;16861;52.294;7.760;2023-05-03T12:51:51;101000.56;;;30.11;26.53
30021;BME280;16861;52.294;7.760;2023-05-03T12:54:38;100989.94;;;30.25;25.75
30021;BME280;16861;52.294;7.760;2023-05-03T12:57:08;100991.69;;;30.33;25.69
30021;BME280;16861;52.294;7.760;2023-05-03T12:59:41;100989.91;;;30.40;25.99
30021;BME280;16861;52.294;7.760;2023-05-03T13:02:10;100997.97;;;30.48;25.27
30021;BME280;16861;52.294;7.760;2023-05-03T13:04:39;100982.59;;;30.55;24.95
30021;BME280;16861;52.294;7.760;2023-05-03T13:07:09;100987.63;;;30.59;24.35
30021;BME280;16861;52.294;7.760;2023-05-03T13:09:43;100985.09;;;30.57;24.14
30021;BME280;16861;52.294;7.760;2023-05-03T13:12:31;100974.81;;;30.52;23.80
30021;BME280;16861;52.294;7.760;2023-05-03T13:15:00;100969.50;;;30.44;24.58
30021;BME280;16861;52.294;7.760;2023-05-03T13:17:30;100971.09;;;30.38;24.35
30021;BME280;16861;52.294;7.760;2023-05-03T13:19:57;100963.13;;;30.37;24.82
30021;BME280;16861;52.294;7.760;2023-05-03T13:22:24;100949.16;;;30.40;24.28
30021;BME280;16861;52.294;7.760;2023-05-03T13:24:50;100959.47;;;30.45;24.50
30021;BME280;16861;52.294;7.760;2023-05-03T13:27:17;100943.91;;;30.53;23.97
30021;BME280;16861;52.294;7.760;2023-05-03T13:29:44;100951.06;;;30.61;24.18